Time;durP1;ratioP1;P1;durP2;ratioP2;P2;SDS_P1;SDS_P2;PMS_P1;PMS_P2;Temp;Humidity;BMP_temperature;BMP_pressure;BME280_temperature;BME280_humidity;BME280_pressure;Samples;Min_cycle;Max_cycle;Signal;HPM_P1;HPM_P2
2022/10/17 00:00:38;;;;;;;;;;;11.30;99.90;;;;;;4855153;29;20093;-53
2022/10/17 00:03:04;;;;;;;4.43;1.90;;;11.30;99.90;;;;;;4854193;29;19990;-59
2022/10/17 00:05:31;;;;;;;;;;;11.30;99.90;;;;;;4852738;29;20053;-58
2022/10/17 00:07:58;;;;;;;3.97;1.70;;;11.30;99.90;;;;;;4854825;29;19928;-58
2022/10/17 00:10:25;;;;;;;11.93;1.85;;;11.30;99.90;;;;;;4849270;29;20041;-58
2022/10/17 00:12:51;;;;;;;;;;;11.20;99.90;;;;;;4847649;29;20056;-55
2022/10/17 00:15:19;;;;;;;5.53;1.83;;;11.20;99.90;;;;;;4852703;29;19931;-57
2022/10/17 00:17:46;;;;;;;14.52;1.90;;;11.20;99.90;;;;;;4852706;29;20049;-56
2022/10/17 00:20:13;;;;;;;3.92;1.67;;;11.20;99.90;;;;;;4848149;29;20051;-56
2022/10/17 00:22:41;;;;;;;4.28;2.55;;;11.20;99.90;;;;;;4856826;29;20077;-55
2022/10/17 00:25:08;;;;;;;6.32;1.73;;;11.10;99.90;;;;;;4848363;29;20052;-57
2022/10/17 00:27:36;;;;;;;6.32;1.80;;;11.20;99.90;;;;;;4854290;29;20132;-57
2022/10/17 00:30:05;;;;;;;8.85;1.92;;;11.20;99.90;;;;;;4854081;29;20046;-58
2022/10/17 00:32:31;;;;;;;5.00;1.90;;;11.20;99.90;;;;;;4855790;29;20053;-55
2022/10/17 00:34:58;;;;;;;;;;;11.10;99.90;;;;;;4854435;29;20061;-56
2022/10/17 00:37:25;;;;;;;3.00;2.15;;;11.10;99.90;;;;;;4855941;29;20568;-56
2022/10/17 00:39:52;;;;;;;;;;;11.20;99.90;;;;;;4855963;29;20057;-57
2022/10/17 00:42:19;;;;;;;4.50;1.95;;;11.20;99.90;;;;;;4851189;29;19928;-56
2022/10/17 00:44:46;;;;;;;;;;;11.10;99.90;;;;;;4851481;29;20041;-56
2022/10/17 00:47:18;;;;;;;7.68;2.03;;;11.20;99.90;;;;;;4851840;29;20354;-58
2022/10/17 00:49:46;;;;;;;3.80;1.98;;;11.20;99.90;;;;;;4836674;29;20049;-55
2022/10/17 00:52:22;;;;;;;5.50;2.05;;;11.20;99.90;;;;;;4852638;29;20798;-57
2022/10/17 00:55:07;;;;;;;6.18;2.25;;;11.20;99.90;;;;;;4844474;29;20049;-56
2022/10/17 00:57:35;;;;;;;8.68;1.92;;;11.30;99.90;;;;;;4856957;29;20078;-59
2022/10/17 01:00:07;;;;;;;7.53;2.83;;;11.20;99.90;;;;;;4854179;29;20700;-59
2022/10/17 01:02:34;;;;;;;1.85;1.50;;;11.30;99.90;;;;;;4854547;29;20045;-56
2022/10/17 01:05:01;;;;;;;3.25;1.92;;;11.30;99.90;;;;;;4854299;29;20128;-57
2022/10/17 01:07:29;;;;;;;2.45;2.13;;;11.30;99.90;;;;;;4861061;29;20924;-57
2022/10/17 01:10:03;;;;;;;2.25;1.83;;;11.30;99.90;;;;;;4858606;29;20041;-56
2022/10/17 01:12:44;;;;;;;4.53;2.05;;;11.30;99.90;;;;;;4859749;29;20033;-57
2022/10/17 01:15:14;;;;;;;4.40;2.00;;;11.30;99.90;;;;;;4855154;29;20049;-56
2022/10/17 01:17:53;;;;;;;3.63;2.10;;;11.30;99.90;;;;;;4859298;29;20685;-57
2022/10/17 01:21:08;;;;;;;2.83;1.98;;;11.30;99.90;;;;;;4854025;29;20056;-56
2022/10/17 01:23:47;;;;;;;3.55;1.90;;;11.20;99.90;;;;;;4844536;29;20899;-58
2022/10/17 01:26:39;;;;;;;2.40;1.90;;;11.20;99.90;;;;;;4862565;29;20056;-56
2022/10/17 01:29:20;;;;;;;4.32;1.70;;;11.10;99.90;;;;;;4855157;29;20053;-56
2022/10/17 01:32:21;;;;;;;2.47;2.08;;;11.10;99.90;;;;;;4859929;29;20108;-56
2022/10/17 01:35:01;;;;;;;7.13;2.38;;;11.00;99.90;;;;;;4851902;29;20080;-53
2022/10/17 01:37:44;;;;;;;4.50;1.80;;;10.90;99.90;;;;;;4858338;29;20634;-58
2022/10/17 01:40:26;;;;;;;2.95;1.60;;;10.90;99.90;;;;;;4851416;29;20056;-55
2022/10/17 01:43:30;;;;;;;5.68;1.88;;;10.90;99.90;;;;;;4849858;29;20784;-56
2022/10/17 01:46:07;;;;;;;2.42;1.70;;;10.90;99.90;;;;;;4828558;29;20064;-59
2022/10/17 01:48:36;;;;;;;2.30;1.90;;;10.80;99.90;;;;;;4851718;29;20152;-55
2022/10/17 01:51:21;;;;;;;2.03;1.70;;;10.80;99.90;;;;;;4852681;29;20037;-59
2022/10/17 01:53:55;;;;;;;1.70;1.60;;;10.80;99.90;;;;;;4846439;29;20056;-55
2022/10/17 01:56:26;;;;;;;3.45;2.30;;;10.70;99.90;;;;;;4854097;29;20555;-58
2022/10/17 01:59:00;;;;;;;4.43;2.25;;;10.70;99.90;;;;;;4854635;29;20069;-56
2022/10/17 02:01:30;;;;;;;1.33;1.20;;;10.70;99.90;;;;;;4836293;29;20041;-56
2022/10/17 02:04:00;;;;;;;1.85;1.48;;;10.70;99.90;;;;;;4847451;29;20424;-56
2022/10/17 02:06:27;;;;;;;4.07;1.58;;;10.70;99.90;;;;;;4854479;29;20045;-57
2022/10/17 02:08:55;;;;;;;4.80;1.95;;;10.70;99.90;;;;;;4859332;29;20082;-57
2022/10/17 02:11:22;;;;;;;;;;;10.60;99.90;;;;;;4854714;29;20614;-57
2022/10/17 02:14:20;;;;;;;11.50;2.10;;;10.60;99.90;;;;;;4853450;29;20138;-57
2022/10/17 02:17:07;;;;;;;4.43;1.92;;;10.60;99.90;;;;;;4858136;29;20778;-59
2022/10/17 02:20:00;;;;;;;6.47;1.83;;;10.60;99.90;;;;;;4859845;29;20077;-55
2022/10/17 02:22:54;;;;;;;2.15;1.70;;;10.60;99.90;;;;;;4852770;29;20050;-57
2022/10/17 02:25:30;;;;;;;3.25;2.30;;;10.60;99.90;;;;;;4852112;29;20072;-56
2022/10/17 02:28:19;;;;;;;2.83;2.22;;;10.60;99.90;;;;;;4859987;29;20105;-59
2022/10/17 02:31:02;;;;;;;4.07;1.83;;;10.60;99.90;;;;;;4848498;29;20057;-53
2022/10/17 02:34:03;;;;;;;4.85;1.85;;;10.60;99.90;;;;;;4850586;29;20057;-56
2022/10/17 02:36:40;;;;;;;5.35;2.15;;;10.60;99.90;;;;;;4821851;29;20072;-56
2022/10/17 02:39:10;;;;;;;2.70;1.90;;;10.60;99.90;;;;;;4848985;29;20063;-58
2022/10/17 02:41:38;;;;;;;3.95;1.90;;;10.60;99.90;;;;;;4849100;29;20053;-58
2022/10/17 02:44:07;;;;;;;2.63;2.03;;;10.60;99.90;;;;;;4855113;29;20140;-59
2022/10/17 02:46:36;;;;;;;2.30;2.00;;;10.60;99.90;;;;;;4855571;29;20033;-58
2022/10/17 02:49:27;;;;;;;4.03;1.92;;;10.60;99.90;;;;;;4830183;29;20548;-56
2022/10/17 02:52:18;;;;;;;4.95;2.40;;;10.50;99.90;;;;;;4853509;29;20053;-58
2022/10/17 02:54:53;;;;;;;4.30;1.92;;;10.50;99.90;;;;;;4858894;29;20152;-59
2022/10/17 02:58:03;;;;;;;2.75;1.55;;;10.50;99.90;;;;;;4857095;29;20628;-58
2022/10/17 03:00:31;;;;;;;1.85;1.73;;;10.50;99.90;;;;;;4823794;29;20049;-56
2022/10/17 03:02:58;;;;;;;6.95;1.90;;;10.40;99.90;;;;;;4833314;29;20052;-55
2022/10/17 03:05:27;;;;;;;3.35;1.40;;;10.40;99.90;;;;;;4857548;29;20053;-55
2022/10/17 03:07:55;;;;;;;4.20;1.77;;;10.40;99.90;;;;;;4856474;29;20132;-56
2022/10/17 03:10:23;;;;;;;2.85;1.60;;;10.40;99.90;;;;;;4851261;29;20047;-56
2022/10/17 03:12:50;;;;;;;;;;;10.40;99.90;;;;;;4836029;29;20049;-56
2022/10/17 03:15:18;;;;;;;4.35;2.63;;;10.30;99.90;;;;;;4854470;29;20554;-58
2022/10/17 03:17:45;;;;;;;8.82;1.95;;;10.30;99.90;;;;;;4848344;29;20074;-54
2022/10/17 03:20:12;;;;;;;6.68;1.90;;;10.30;99.90;;;;;;4834289;29;20081;-56
2022/10/17 03:22:39;;;;;;;2.30;1.77;;;10.30;99.90;;;;;;4854912;29;20056;-58
2022/10/17 03:25:06;;;;;;;;;;;10.30;99.90;;;;;;4855493;29;20064;-56
2022/10/17 03:27:34;;;;;;;9.38;2.70;;;10.30;99.90;;;;;;4856711;29;19934;-57
2022/10/17 03:30:01;;;;;;;;;;;10.30;99.90;;;;;;4835956;29;20088;-58
2022/10/17 03:32:33;;;;;;;6.72;2.30;;;10.30;99.90;;;;;;4855574;29;19927;-58
2022/10/17 03:35:00;;;;;;;8.57;1.95;;;10.30;99.90;;;;;;4850076;29;20571;-55
2022/10/17 03:37:27;;;;;;;3.53;1.92;;;10.30;99.90;;;;;;4850639;29;20046;-56
2022/10/17 03:39:54;;;;;;;3.42;2.28;;;10.30;99.90;;;;;;4834890;29;20052;-55
2022/10/17 03:42:21;;;;;;;4.07;2.28;;;10.30;99.90;;;;;;4856491;29;20045;-56
2022/10/17 03:44:48;;;;;;;16.05;2.55;;;10.30;99.90;;;;;;4849976;29;20046;-58
2022/10/17 03:47:15;;;;;;;9.45;1.80;;;10.30;99.90;;;;;;4850056;29;20083;-57
2022/10/17 03:49:43;;;;;;;2.90;2.03;;;10.30;99.90;;;;;;4851559;29;20061;-57
2022/10/17 03:52:13;;;;;;;9.68;2.30;;;10.30;99.90;;;;;;4847264;29;20176;-58
2022/10/17 03:54:40;;;;;;;4.85;1.83;;;10.30;99.90;;;;;;4834209;29;20588;-59
2022/10/17 03:57:07;;;;;;;;;;;10.30;99.90;;;;;;4848044;29;20052;-59
2022/10/17 03:59:34;;;;;;;2.42;2.10;;;10.30;99.90;;;;;;4855008;29;19927;-58
2022/10/17 04:02:08;;;;;;;5.07;2.00;;;10.30;99.90;;;;;;4853130;29;20045;-55
2022/10/17 04:04:35;;;;;;;3.45;2.15;;;10.30;99.90;;;;;;4853803;29;20543;-56
2022/10/17 04:07:02;;;;;;;5.85;1.88;;;10.20;99.90;;;;;;4858594;29;20767;-54
2022/10/17 04:09:29;;;;;;;2.88;2.03;;;10.20;99.90;;;;;;4853013;29;20040;-59
2022/10/17 04:12:04;;;;;;;4.63;2.08;;;10.20;99.90;;;;;;4856207;29;20353;-57
2022/10/17 04:14:33;;;;;;;3.05;1.98;;;10.10;99.90;;;;;;4855073;29;20064;-57
2022/10/17 04:17:00;;;;;;;2.20;1.67;;;10.10;99.90;;;;;;4853500;29;20063;-53
2022/10/17 04:19:28;;;;;;;8.10;2.28;;;10.10;99.90;;;;;;4851078;29;20584;-56
2022/10/17 04:21:55;;;;;;;4.40;2.08;;;10.10;99.90;;;;;;4854612;29;20063;-56
2022/10/17 04:24:22;;;;;;;6.97;2.35;;;10.10;99.90;;;;;;4857381;29;20834;-57
2022/10/17 04:26:49;;;;;;;3.13;1.80;;;10.10;99.90;;;;;;4855078;29;20041;-56
2022/10/17 04:29:18;;;;;;;6.70;2.08;;;10.10;99.90;;;;;;4835190;29;20749;-59
2022/10/17 04:31:48;;;;;;;3.60;2.00;;;10.10;99.90;;;;;;4849305;29;20041;-57
2022/10/17 04:34:24;;;;;;;2.83;2.38;;;10.10;99.90;;;;;;4833139;29;20059;-58
2022/10/17 04:36:51;;;;;;;;;;;10.10;99.90;;;;;;4855017;29;20128;-58
2022/10/17 04:39:18;;;;;;;11.00;2.28;;;10.20;99.90;;;;;;4854425;29;20042;-56
2022/10/17 04:41:45;;;;;;;7.85;2.55;;;10.20;99.90;;;;;;4855723;29;20045;-56
2022/10/17 04:44:13;;;;;;;3.55;2.08;;;10.20;99.90;;;;;;4853659;29;20044;-57
2022/10/17 04:46:45;;;;;;;5.13;2.88;;;10.10;99.90;;;;;;4847918;29;20096;-56
2022/10/17 04:49:12;;;;;;;;;;;10.10;99.90;;;;;;4853762;29;20064;-56
2022/10/17 04:51:42;;;;;;;2.95;2.00;;;10.10;99.90;;;;;;4844224;29;19927;-55
2022/10/17 04:54:22;;;;;;;4.80;2.38;;;10.00;99.90;;;;;;4850420;29;20717;-57
2022/10/17 04:56:55;;;;;;;8.75;2.40;;;10.00;99.90;;;;;;4851442;29;20056;-56
2022/10/17 04:59:22;;;;;;;2.30;2.00;;;10.00;99.90;;;;;;4850054;29;20057;-55
2022/10/17 05:01:58;;;;;;;7.50;2.10;;;10.00;99.90;;;;;;4849131;29;20042;-53
2022/10/17 05:04:26;;;;;;;7.57;2.10;;;10.00;99.90;;;;;;4849663;29;20041;-56
2022/10/17 05:06:53;;;;;;;2.50;2.00;;;9.90;99.90;;;;;;4849611;29;20408;-54
2022/10/17 05:09:46;;;;;;;8.60;1.70;;;9.90;99.90;;;;;;4819719;29;20072;-53
2022/10/17 05:12:15;;;;;;;8.60;2.00;;;9.90;99.90;;;;;;4857386;29;20056;-57
2022/10/17 05:14:44;;;;;;;4.50;1.98;;;9.90;99.90;;;;;;4842224;29;20918;-57
2022/10/17 05:17:11;;;;;;;4.22;1.70;;;9.90;99.90;;;;;;4837478;29;20125;-56
2022/10/17 05:19:38;;;;;;;3.33;2.03;;;9.90;99.90;;;;;;4851317;29;20608;-57
2022/10/17 05:22:06;;;;;;;6.40;2.17;;;9.90;99.90;;;;;;4850634;29;20059;-57
2022/10/17 05:24:32;;;;;;;;;;;9.90;99.90;;;;;;4853520;29;20141;-57
2022/10/17 05:26:59;;;;;;;8.65;2.17;;;10.00;99.90;;;;;;4856904;29;20470;-54
2022/10/17 05:29:26;;;;;;;5.32;2.88;;;9.90;99.90;;;;;;4842012;29;20590;-55
2022/10/17 05:32:02;;;;;;;4.70;2.70;;;9.90;99.90;;;;;;4859779;29;20049;-57
2022/10/17 05:34:28;;;;;;;;;;;9.90;99.90;;;;;;4856600;29;20049;-56
2022/10/17 05:36:56;;;;;;;5.53;1.90;;;9.90;99.90;;;;;;4853993;29;19932;-54
2022/10/17 05:39:23;;;;;;;3.45;1.90;;;9.90;99.90;;;;;;4837762;29;20852;-53
2022/10/17 05:41:51;;;;;;;4.25;2.28;;;9.90;99.90;;;;;;4852396;29;20088;-53
2022/10/17 05:44:18;;;;;;;15.63;2.58;;;10.00;99.90;;;;;;4852925;29;20436;-55
2022/10/17 05:46:51;;;;;;;4.68;2.35;;;10.00;99.90;;;;;;4852268;29;20910;-55
2022/10/17 05:49:18;;;;;;;;;;;10.00;99.90;;;;;;4854166;29;20128;-56
2022/10/17 05:52:05;;;;;;;3.25;1.90;;;10.10;99.90;;;;;;4853972;29;20433;-55
2022/10/17 05:54:40;;;;;;;6.07;2.28;;;10.10;99.90;;;;;;4840423;29;20442;-57
2022/10/17 05:57:07;;;;;;;;;;;10.10;99.90;;;;;;4838479;29;20048;-57
2022/10/17 05:59:35;;;;;;;2.10;1.85;;;10.20;99.90;;;;;;4852229;29;20034;-57
2022/10/17 06:02:06;;;;;;;5.47;1.85;;;10.10;99.90;;;;;;4855526;29;20130;-57
2022/10/17 06:04:33;;;;;;;4.03;2.20;;;10.10;99.90;;;;;;4853428;29;20120;-56
2022/10/17 06:07:01;;;;;;;5.97;1.95;;;10.10;99.90;;;;;;4853790;29;20109;-58
2022/10/17 06:09:30;;;;;;;5.35;2.17;;;10.10;99.90;;;;;;4858509;29;20139;-56
2022/10/17 06:11:57;;;;;;;3.72;2.13;;;10.20;99.90;;;;;;4859317;29;20472;-57
2022/10/17 06:14:24;;;;;;;4.28;2.72;;;10.30;99.90;;;;;;4855603;29;20060;-54
2022/10/17 06:16:55;;;;;;;7.05;2.13;;;10.40;99.90;;;;;;4854172;29;20743;-56
2022/10/17 06:19:22;;;;;;;3.30;2.03;;;10.60;99.90;;;;;;4852331;29;20080;-59
2022/10/17 06:21:49;;;;;;;2.75;2.47;;;10.80;99.90;;;;;;4838217;29;20152;-55
2022/10/17 06:24:20;;;;;;;3.63;2.92;;;11.10;99.90;;;;;;4853064;29;20048;-56
2022/10/17 06:26:48;;;;;;;3.25;2.47;;;11.40;99.90;;;;;;4838226;29;20048;-56
2022/10/17 06:29:16;;;;;;;16.23;3.47;;;11.80;99.90;;;;;;4857531;29;20073;-57
2022/10/17 06:31:47;;;;;;;3.08;2.80;;;12.10;99.90;;;;;;4851264;29;20057;-56
2022/10/17 06:34:14;;;;;;;;;;;12.50;99.90;;;;;;4849312;29;20145;-58
2022/10/17 06:36:40;;;;;;;6.65;2.65;;;12.80;99.90;;;;;;4852239;29;19974;-57
2022/10/17 06:39:09;;;;;;;4.32;2.42;;;13.20;99.90;;;;;;4838907;29;20128;-57
2022/10/17 06:41:43;;;;;;;5.40;2.38;;;13.60;99.90;;;;;;4854649;29;20057;-56
2022/10/17 06:44:11;;;;;;;3.63;2.08;;;14.00;99.90;;;;;;4853589;29;20056;-56
2022/10/17 06:47:16;;;;;;;2.38;1.90;;;14.30;99.90;;;;;;4835389;29;20053;-57
2022/10/17 06:49:46;;;;;;;5.68;1.98;;;14.80;99.90;;;;;;4834132;29;20779;-56
2022/10/17 06:52:19;;;;;;;3.40;2.42;;;15.10;99.90;;;;;;4840201;29;20133;-56
2022/10/17 06:55:06;;;;;;;7.50;2.20;;;15.50;99.90;;;;;;4848740;29;20062;-58
2022/10/17 06:57:40;;;;;;;6.30;1.92;;;15.80;99.90;;;;;;4836527;29;20140;-56
2022/10/17 07:00:26;;;;;;;2.40;1.70;;;16.20;99.90;;;;;;4858086;29;20463;-55
2022/10/17 07:02:55;;;;;;;9.23;2.50;;;16.60;99.90;;;;;;4848670;29;20142;-55
2022/10/17 07:05:22;;;;;;;4.53;1.40;;;16.90;99.90;;;;;;4850438;29;20048;-55
2022/10/17 07:07:49;;;;;;;2.50;1.90;;;17.20;99.90;;;;;;4853162;29;20517;-56
2022/10/17 07:10:17;;;;;;;3.97;1.83;;;17.60;99.90;;;;;;4852220;29;20052;-54
2022/10/17 07:12:44;;;;;;;;;;;17.90;99.90;;;;;;4855026;29;20052;-54
2022/10/17 07:15:11;;;;;;;3.75;1.92;;;18.20;99.90;;;;;;4847886;29;19927;-56
2022/10/17 07:17:38;;;;;;;3.47;1.75;;;18.40;99.90;;;;;;4858702;29;20125;-55
2022/10/17 07:20:06;;;;;;;4.72;1.75;;;18.50;99.90;;;;;;4854400;29;20064;-58
2022/10/17 07:22:35;;;;;;;3.53;2.05;;;18.60;99.90;;;;;;4856395;29;20103;-57
2022/10/17 07:25:02;;;;;;;;;;;18.80;99.90;;;;;;4855801;29;20045;-54
2022/10/17 07:27:35;;;;;;;1.95;1.60;;;19.00;99.90;;;;;;4836259;29;20743;-53
2022/10/17 07:30:03;;;;;;;1.88;1.38;;;19.30;99.90;;;;;;4854667;29;20187;-51
2022/10/17 07:32:53;;;;;;;2.90;1.60;;;19.40;99.90;;;;;;4850958;29;20053;-56
2022/10/17 07:35:20;;;;;;;4.05;1.50;;;19.60;99.90;;;;;;4857153;29;20136;-56
2022/10/17 07:37:47;;;;;;;1.73;1.63;;;19.80;99.90;;;;;;4858487;29;21051;-54
2022/10/17 07:40:17;;;;;;;3.75;1.90;;;19.90;98.90;;;;;;4846467;29;20071;-55
2022/10/17 07:42:44;;;;;;;2.70;1.58;;;20.00;99.90;;;;;;4855655;29;20831;-55
2022/10/17 07:45:12;;;;;;;10.68;2.13;;;20.20;99.30;;;;;;4854094;29;20063;-56
2022/10/17 07:47:40;;;;;;;3.50;2.00;;;20.30;98.10;;;;;;4846323;29;20068;-55
2022/10/17 07:50:08;;;;;;;5.90;1.92;;;20.40;98.30;;;;;;4846625;29;20133;-55
2022/10/17 07:52:35;;;;;;;3.30;1.80;;;20.60;97.10;;;;;;4849652;29;20057;-56
2022/10/17 07:55:02;;;;;;;5.18;2.17;;;20.70;96.30;;;;;;4853520;29;20137;-58
2022/10/17 07:57:29;;;;;;;3.97;2.25;;;20.80;94.40;;;;;;4855129;29;20049;-61
2022/10/17 07:59:56;;;;;;;;;;;21.00;93.90;;;;;;4856172;29;20084;-57
2022/10/17 08:02:25;;;;;;;7.70;1.95;;;21.10;94.10;;;;;;4849428;29;20630;-59
2022/10/17 08:04:52;;;;;;;7.00;1.85;;;21.40;93.00;;;;;;4851642;29;20045;-62
2022/10/17 08:07:19;;;;;;;8.85;2.03;;;21.60;91.90;;;;;;4854791;29;20045;-56
2022/10/17 08:09:54;;;;;;;3.70;1.95;;;21.80;90.20;;;;;;4852772;29;20049;-56
2022/10/17 08:12:21;;;;;;;8.27;2.40;;;21.90;84.40;;;;;;4855879;29;20705;-57
2022/10/17 08:14:48;;;;;;;4.78;1.83;;;22.00;82.80;;;;;;4860103;29;20515;-56
2022/10/17 08:17:14;;;;;;;7.90;2.05;;;22.10;82.40;;;;;;4854609;29;20061;-55
2022/10/17 08:19:41;;;;;;;7.20;1.98;;;22.30;82.90;;;;;;4855507;29;20081;-56
2022/10/17 08:22:08;;;;;;;6.45;2.15;;;22.50;77.90;;;;;;4856726;29;20061;-55
2022/10/17 08:24:35;;;;;;;3.33;1.88;;;22.60;78.10;;;;;;4853029;29;20094;-55
2022/10/17 08:27:02;;;;;;;3.97;1.50;;;22.60;75.70;;;;;;4849463;29;20041;-56
2022/10/17 08:29:31;;;;;;;5.90;2.50;;;22.80;75.60;;;;;;4858084;29;20131;-58
2022/10/17 08:31:58;;;;;;;5.55;2.00;;;23.00;73.20;;;;;;4855330;29;20130;-56
2022/10/17 08:34:28;;;;;;;3.45;1.98;;;23.10;73.90;;;;;;4853737;29;20391;-57
2022/10/17 08:36:54;;;;;;;7.78;2.40;;;23.20;70.90;;;;;;4852633;29;20060;-55
2022/10/17 08:39:21;;;;;;;6.90;1.85;;;23.40;72.60;;;;;;4851985;29;20789;-56
2022/10/17 08:41:51;;;;;;;3.53;1.67;;;23.60;73.10;;;;;;4856263;29;20044;-57
2022/10/17 08:44:48;;;;;;;6.47;1.60;;;23.70;71.30;;;;;;4858616;29;20252;-57
2022/10/17 08:47:23;;;;;;;4.30;1.60;;;23.90;72.00;;;;;;4849892;29;20045;-58
2022/10/17 08:49:56;;;;;;;2.97;1.70;;;24.00;74.40;;;;;;4853213;29;20125;-57
2022/10/17 08:52:48;;;;;;;2.67;2.00;;;24.20;73.30;;;;;;4850739;29;20069;-58
2022/10/17 08:55:29;;;;;;;7.88;2.28;;;24.30;70.40;;;;;;4850339;29;20425;-58
2022/10/17 08:57:56;;;;;;;7.65;2.20;;;24.40;69.80;;;;;;4851405;29;20867;-57
2022/10/17 09:00:24;;;;;;;6.10;2.58;;;24.50;69.20;;;;;;4853562;29;20679;-55
2022/10/17 09:03:12;;;;;;;8.20;2.83;;;24.60;68.50;;;;;;4851372;29;20057;-56
2022/10/17 09:05:45;;;;;;;7.35;2.83;;;24.50;68.50;;;;;;4835933;29;20137;-58
2022/10/17 09:08:34;;;;;;;5.22;2.95;;;24.60;70.50;;;;;;4851678;29;20132;-57
2022/10/17 09:11:40;;;;;;;4.10;2.58;;;24.70;70.50;;;;;;4854208;29;20719;-57
2022/10/17 09:14:41;;;;;;;5.30;3.88;;;24.80;70.90;;;;;;4856250;29;20045;-57
2022/10/17 09:17:50;;;;;;;4.20;2.42;;;24.90;69.20;;;;;;4858060;29;21022;-56
2022/10/17 09:20:24;;;;;;;5.45;2.30;;;25.10;70.20;;;;;;4849423;29;20077;-56
2022/10/17 09:23:04;;;;;;;8.60;2.53;;;25.40;68.00;;;;;;4853321;29;20799;-54
2022/10/17 09:25:47;;;;;;;5.18;2.15;;;25.50;67.60;;;;;;4856479;29;20674;-56
2022/10/17 09:28:31;;;;;;;6.68;2.40;;;25.70;68.10;;;;;;4859058;29;20045;-55
2022/10/17 09:31:04;;;;;;;4.07;2.22;;;25.80;67.00;;;;;;4848299;29;20042;-57
2022/10/17 09:33:42;;;;;;;6.60;2.38;;;26.10;66.90;;;;;;4857851;29;20115;-56
2022/10/17 09:36:27;;;;;;;6.50;2.83;;;26.40;66.90;;;;;;4850275;29;20044;-59
2022/10/17 09:38:58;;;;;;;6.60;3.03;;;26.60;64.30;;;;;;4856992;29;20053;-56
2022/10/17 09:41:44;;;;;;;12.75;2.78;;;26.80;61.30;;;;;;4859457;29;20059;-57
2022/10/17 09:45:01;;;;;;;6.18;2.53;;;26.90;64.20;;;;;;4854080;29;20045;-52
2022/10/17 09:47:40;;;;;;;6.63;2.30;;;27.00;62.50;;;;;;4838299;29;20057;-62
2022/10/17 09:50:35;;;;;;;6.07;2.20;;;27.10;62.90;;;;;;4858412;29;20128;-56
2022/10/17 09:53:17;;;;;;;3.47;2.17;;;27.30;61.60;;;;;;4849896;29;20084;-56
2022/10/17 09:55:48;;;;;;;3.42;2.50;;;27.50;60.20;;;;;;4848833;29;20065;-56
2022/10/17 09:58:15;;;;;;;6.70;2.80;;;27.50;58.70;;;;;;4853139;29;20081;-58
2022/10/17 10:00:45;;;;;;;5.10;2.42;;;27.60;58.10;;;;;;4855547;29;20259;-57
2022/10/17 10:03:22;;;;;;;5.82;2.47;;;27.60;59.60;;;;;;4859532;29;20069;-56
2022/10/17 10:06:03;;;;;;;7.00;2.13;;;27.70;59.50;;;;;;4839370;29;20045;-55
2022/10/17 10:08:54;;;;;;;10.48;2.88;;;27.80;56.70;;;;;;4851268;29;20046;-56
2022/10/17 10:11:43;;;;;;;5.80;2.38;;;27.90;56.40;;;;;;4857840;29;20049;-57
2022/10/17 10:14:22;;;;;;;8.20;2.22;;;28.10;56.20;;;;;;4855978;29;20714;-57
2022/10/17 10:16:52;;;;;;;6.68;3.08;;;28.20;55.30;;;;;;4853550;29;20876;-58
2022/10/17 10:19:29;;;;;;;3.15;2.17;;;28.30;55.20;;;;;;4856726;29;20125;-59
2022/10/17 10:21:58;;;;;;;5.53;2.22;;;28.30;54.10;;;;;;4854684;29;20064;-56
2022/10/17 10:24:26;;;;;;;2.55;2.20;;;28.20;53.70;;;;;;4857947;29;20616;-56
2022/10/17 10:27:03;;;;;;;8.45;2.00;;;28.20;54.50;;;;;;4855530;29;20045;-54
2022/10/17 10:29:34;;;;;;;3.42;2.30;;;28.20;54.30;;;;;;4857292;29;20051;-61
2022/10/17 10:32:17;;;;;;;5.53;2.28;;;28.20;53.70;;;;;;4857451;29;20045;-59
2022/10/17 10:35:22;;;;;;;7.30;1.77;;;28.20;54.40;;;;;;4856379;29;20048;-55
2022/10/17 10:37:52;;;;;;;3.03;2.17;;;28.40;54.70;;;;;;4856331;29;20128;-56
2022/10/17 10:40:26;;;;;;;2.65;1.80;;;28.50;55.50;;;;;;4858697;29;20065;-55
2022/10/17 10:42:56;;;;;;;5.93;2.15;;;28.50;53.50;;;;;;4850268;29;20057;-55
2022/10/17 10:45:36;;;;;;;5.00;1.98;;;28.40;54.00;;;;;;4853343;29;20049;-55
2022/10/17 10:48:24;;;;;;;7.90;3.33;;;28.30;54.50;;;;;;4857161;29;20147;-56
2022/10/17 10:51:07;;;;;;;8.32;2.20;;;28.20;53.70;;;;;;4853907;29;20053;-57
2022/10/17 10:53:54;;;;;;;6.20;2.28;;;28.30;54.70;;;;;;4856047;29;20131;-56
2022/10/17 10:56:37;;;;;;;5.45;2.50;;;28.30;54.60;;;;;;4852928;29;20057;-53
2022/10/17 10:59:22;;;;;;;4.20;2.20;;;28.30;54.30;;;;;;4851019;29;20076;-56
2022/10/17 11:01:53;;;;;;;5.72;2.00;;;28.30;55.30;;;;;;4848197;29;20056;-56
2022/10/17 11:04:45;;;;;;;7.50;2.25;;;28.20;55.20;;;;;;4855354;29;20048;-58
2022/10/17 11:07:43;;;;;;;1.48;1.38;;;28.20;54.70;;;;;;4848315;29;21002;-57
2022/10/17 11:10:21;;;;;;;7.10;1.88;;;28.20;54.30;;;;;;4852647;29;20055;-58
2022/10/17 11:13:03;;;;;;;3.63;1.55;;;28.20;54.90;;;;;;4855429;29;20131;-58
2022/10/17 11:15:47;;;;;;;6.68;2.17;;;28.20;54.10;;;;;;4855614;29;20063;-58
2022/10/17 11:18:27;;;;;;;2.75;1.88;;;28.30;55.10;;;;;;4858004;29;20730;-53
2022/10/17 11:21:09;;;;;;;4.93;1.90;;;28.40;54.50;;;;;;4849296;29;20077;-60
2022/10/17 11:23:55;;;;;;;2.58;1.98;;;28.50;53.80;;;;;;4855328;29;20053;-56
2022/10/17 11:26:27;;;;;;;3.22;2.15;;;28.50;53.60;;;;;;4853357;29;20041;-58
2022/10/17 11:29:02;;;;;;;8.43;2.13;;;28.50;53.60;;;;;;4849114;29;20045;-57
2022/10/17 11:31:38;;;;;;;2.38;1.75;;;28.50;54.40;;;;;;4855768;29;20134;-58
2022/10/17 11:34:18;;;;;;;5.93;2.03;;;28.50;54.90;;;;;;4854751;29;20128;-58
2022/10/17 11:36:49;;;;;;;5.85;1.98;;;28.50;53.90;;;;;;4850818;29;20482;-58
2022/10/17 11:39:33;;;;;;;5.63;2.08;;;28.40;53.40;;;;;;4853580;29;20057;-56
2022/10/17 11:42:08;;;;;;;5.03;1.88;;;28.50;55.20;;;;;;4852589;29;20068;-56
2022/10/17 11:44:37;;;;;;;5.03;1.75;;;28.60;55.00;;;;;;4855508;29;20048;-56
2022/10/17 11:47:04;;;;;;;4.43;1.85;;;28.70;54.80;;;;;;4858322;29;20060;-56
2022/10/17 11:49:36;;;;;;;3.67;1.75;;;28.70;54.00;;;;;;4851392;29;20074;-53
2022/10/17 11:52:16;;;;;;;10.10;1.80;;;28.80;54.10;;;;;;4857186;29;20893;-59
2022/10/17 11:55:27;;;;;;;3.80;2.13;;;28.80;53.90;;;;;;4851619;29;20465;-58
2022/10/17 11:58:12;;;;;;;9.60;1.95;;;28.60;54.50;;;;;;4844971;29;20056;-60
2022/10/17 12:01:00;;;;;;;5.28;2.20;;;28.60;54.80;;;;;;4852934;29;20055;-54
2022/10/17 12:03:46;;;;;;;4.80;2.28;;;28.70;55.00;;;;;;4851600;29;20053;-63
2022/10/17 12:06:30;;;;;;;5.00;1.83;;;28.80;54.80;;;;;;4853902;29;20555;-56
2022/10/17 12:09:09;;;;;;;8.75;2.40;;;28.80;54.60;;;;;;4849141;29;20529;-56
2022/10/17 12:11:53;;;;;;;4.47;1.70;;;28.80;55.00;;;;;;4846864;29;20647;-58
2022/10/17 12:14:42;;;;;;;8.05;2.20;;;28.80;54.70;;;;;;4852380;29;20076;-57
2022/10/17 12:17:35;;;;;;;4.93;2.40;;;28.80;55.50;;;;;;4857091;29;20295;-59
2022/10/17 12:20:23;;;;;;;5.30;2.13;;;28.80;54.70;;;;;;4835546;29;20135;-56
2022/10/17 12:23:03;;;;;;;4.07;2.63;;;28.60;54.50;;;;;;4852062;29;20100;-55
2022/10/17 12:25:33;;;;;;;7.18;2.78;;;28.40;54.30;;;;;;4847413;29;20060;-59
2022/10/17 12:28:09;;;;;;;6.20;2.47;;;28.20;55.20;;;;;;4857532;29;21040;-58
2022/10/17 12:30:47;;;;;;;4.15;2.05;;;28.20;55.30;;;;;;4847483;29;20154;-59
2022/10/17 12:33:25;;;;;;;2.50;2.30;;;28.10;55.30;;;;;;4851945;29;20049;-57
2022/10/17 12:36:31;;;;;;;2.30;2.10;;;28.10;55.10;;;;;;4857367;29;20140;-57
2022/10/17 12:39:00;;;;;;;4.43;2.42;;;28.00;55.80;;;;;;4823064;29;20050;-57
2022/10/17 12:41:38;;;;;;;4.22;2.10;;;28.00;55.80;;;;;;4822645;29;20114;-56
2022/10/17 12:44:20;;;;;;;6.63;2.88;;;28.00;55.90;;;;;;4845119;29;20176;-59
2022/10/17 12:46:51;;;;;;;7.22;2.58;;;28.10;56.20;;;;;;4854490;29;20047;-59
2022/10/17 12:49:44;;;;;;;5.60;2.60;;;28.20;56.10;;;;;;4850525;29;20559;-56
2022/10/17 12:52:33;;;;;;;10.18;2.33;;;28.20;56.00;;;;;;4834657;29;20164;-59
2022/10/17 12:55:04;;;;;;;5.18;2.40;;;28.30;56.50;;;;;;4850351;29;20057;-57
2022/10/17 12:57:48;;;;;;;9.00;2.47;;;28.30;57.00;;;;;;4850522;29;20556;-60
2022/10/17 13:00:28;;;;;;;6.38;2.33;;;28.30;56.50;;;;;;4855231;29;20061;-58
2022/10/17 13:03:01;;;;;;;5.75;2.67;;;28.30;57.20;;;;;;4855956;29;20045;-58
2022/10/17 13:05:32;;;;;;;3.58;2.30;;;28.30;57.60;;;;;;4855229;29;20133;-52
2022/10/17 13:08:03;;;;;;;7.80;2.42;;;28.10;57.80;;;;;;4854248;29;20041;-56
2022/10/17 13:10:33;;;;;;;5.53;3.35;;;28.10;58.40;;;;;;4860777;29;20041;-55
2022/10/17 13:13:24;;;;;;;4.18;2.42;;;27.90;58.90;;;;;;4852324;29;20046;-59
2022/10/17 13:15:52;;;;;;;6.03;2.40;;;27.80;58.50;;;;;;4856781;29;21048;-56
2022/10/17 13:18:25;;;;;;;4.60;2.47;;;27.80;58.70;;;;;;4855086;29;20042;-59
2022/10/17 13:20:56;;;;;;;2.78;2.35;;;27.90;59.30;;;;;;4856204;29;20055;-57
2022/10/17 13:23:25;;;;;;;7.15;2.97;;;27.80;59.50;;;;;;4858878;29;20075;-59
2022/10/17 13:26:06;;;;;;;6.72;3.40;;;27.80;58.90;;;;;;4858983;29;20647;-57
2022/10/17 13:28:33;;;;;;;3.67;2.55;;;27.60;59.00;;;;;;4855246;29;20049;-58
2022/10/17 13:31:05;;;;;;;5.50;3.00;;;27.50;59.00;;;;;;4857136;29;20213;-58